createdAt,value
2023-05-05T00:00:11.065Z,50.72
2023-05-05T00:02:40.751Z,50.84
2023-05-05T00:05:10.205Z,50.73
2023-05-05T00:07:37.688Z,50.80
2023-05-05T00:10:11.010Z,50.75
2023-05-05T00:12:44.383Z,50.72
2023-05-05T00:15:19.929Z,50.68
2023-05-05T00:17:46.952Z,50.75
2023-05-05T00:20:16.969Z,50.75
2023-05-05T00:22:46.668Z,50.82
2023-05-05T00:25:14.293Z,50.72
2023-05-05T00:27:46.376Z,50.66
2023-05-05T00:30:13.278Z,50.72
2023-05-05T00:32:40.960Z,50.66
2023-05-05T00:35:15.638Z,50.69
2023-05-05T00:37:47.224Z,50.63
2023-05-05T00:40:16.859Z,50.73
2023-05-05T00:42:50.642Z,50.68
2023-05-05T00:45:21.190Z,50.60
2023-05-05T00:47:57.258Z,50.67
2023-05-05T00:50:29.076Z,50.61
2023-05-05T00:53:04.395Z,50.65
2023-05-05T00:55:38.364Z,50.62
2023-05-05T00:58:12.491Z,50.60
2023-05-05T01:00:44.365Z,50.61
2023-05-05T01:03:11.559Z,50.59
2023-05-05T01:06:04.834Z,50.57
2023-05-05T01:08:45.971Z,50.55
2023-05-05T01:11:20.056Z,50.53
2023-05-05T01:13:50.041Z,50.54
2023-05-05T01:16:29.804Z,50.49
2023-05-05T01:18:59.834Z,50.47
2023-05-05T01:21:31.508Z,50.48
2023-05-05T01:24:10.940Z,50.53
2023-05-05T01:26:47.427Z,50.45
2023-05-05T01:29:33.186Z,50.52
2023-05-05T01:32:07.445Z,50.41
2023-05-05T01:34:48.418Z,50.44
2023-05-05T01:37:23.335Z,50.43
2023-05-05T01:39:58.125Z,50.35
2023-05-05T01:42:29.555Z,50.34
2023-05-05T01:45:01.817Z,50.38
2023-05-05T01:47:34.708Z,50.39
2023-05-05T01:50:02.280Z,50.41
2023-05-05T01:52:33.974Z,50.37
2023-05-05T01:55:06.667Z,50.36
2023-05-05T01:57:34.725Z,50.28
2023-05-05T02:00:24.899Z,50.28
2023-05-05T02:02:59.089Z,50.30
2023-05-05T02:05:30.956Z,50.28
2023-05-05T02:08:07.564Z,50.25
2023-05-05T02:10:35.199Z,50.34
2023-05-05T02:13:05.548Z,50.37
2023-05-05T02:15:35.953Z,50.36
2023-05-05T02:18:06.080Z,50.31
2023-05-05T02:20:33.741Z,50.30
2023-05-05T02:23:00.932Z,50.30
2023-05-05T02:25:33.398Z,50.23
2023-05-05T02:28:00.902Z,50.28
2023-05-05T02:30:33.209Z,50.26
2023-05-05T02:33:13.313Z,50.32
2023-05-05T02:35:40.977Z,50.27
2023-05-05T02:38:13.478Z,50.23
2023-05-05T02:40:42.684Z,50.22
2023-05-05T02:43:10.968Z,50.22
2023-05-05T02:45:38.218Z,50.15
2023-05-05T02:48:11.558Z,50.25
2023-05-05T02:50:44.472Z,50.13
2023-05-05T02:53:14.413Z,50.11
2023-05-05T02:55:50.610Z,50.22
2023-05-05T02:58:24.817Z,50.17
2023-05-05T03:01:03.774Z,50.21
2023-05-05T03:03:46.972Z,50.16
2023-05-05T03:06:23.168Z,50.15
2023-05-05T03:08:56.674Z,50.10
2023-05-05T03:11:26.601Z,50.09
2023-05-05T03:14:01.607Z,50.06
2023-05-05T03:16:32.600Z,50.07
2023-05-05T03:19:15.639Z,50.06
2023-05-05T03:21:45.770Z,50.08
2023-05-05T03:24:22.278Z,50.08
2023-05-05T03:26:52.813Z,50.08
2023-05-05T03:29:23.014Z,50.04
2023-05-05T03:31:53.478Z,50.09
2023-05-05T03:34:22.706Z,50.08
2023-05-05T03:36:52.574Z,50.06
2023-05-05T03:39:28.335Z,50.01
2023-05-05T03:41:55.290Z,50.05
2023-05-05T03:44:25.605Z,50.01
2023-05-05T03:46:52.505Z,50.03
2023-05-05T03:49:23.873Z,50.07
2023-05-05T03:51:55.300Z,50.08
2023-05-05T03:54:22.417Z,50.07
2023-05-05T03:56:52.748Z,50.04
2023-05-05T03:59:25.578Z,50.15
2023-05-05T04:02:03.144Z,50.06
2023-05-05T04:04:30.063Z,50.07
2023-05-05T04:07:00.256Z,50.16
2023-05-05T04:09:27.587Z,50.13
2023-05-05T04:11:54.888Z,50.24
2023-05-05T04:14:22.162Z,50.27
2023-05-05T04:16:54.375Z,50.16
2023-05-05T04:19:23.123Z,50.11
2023-05-05T04:21:49.830Z,50.04
2023-05-05T04:24:19.580Z,50.07
2023-05-05T04:26:46.289Z,50.06
2023-05-05T04:29:15.606Z,49.91
2023-05-05T04:31:42.615Z,49.83
2023-05-05T04:34:10.425Z,49.80
2023-05-05T04:36:37.419Z,49.77
2023-05-05T04:39:04.451Z,49.72
2023-05-05T04:41:31.559Z,49.72
2023-05-05T04:44:01.434Z,49.75
2023-05-05T04:46:33.922Z,49.71
2023-05-05T04:49:02.469Z,49.81
2023-05-05T04:51:34.505Z,49.79
2023-05-05T04:54:04.926Z,49.82
2023-05-05T04:56:33.091Z,49.88
2023-05-05T04:59:02.835Z,49.90
2023-05-05T05:01:37.756Z,49.98
2023-05-05T05:04:09.971Z,49.96
2023-05-05T05:06:40.559Z,49.94
2023-05-05T05:09:13.273Z,49.92
2023-05-05T05:11:43.453Z,50.03
2023-05-05T05:14:12.744Z,50.09
2023-05-05T05:16:42.983Z,50.02
2023-05-05T05:19:10.189Z,50.03
2023-05-05T05:21:37.496Z,50.04
2023-05-05T05:24:10.249Z,50.01
2023-05-05T05:26:43.175Z,50.08
2023-05-05T05:29:23.289Z,49.99
2023-05-05T05:31:53.571Z,49.89
2023-05-05T05:34:23.617Z,49.90
2023-05-05T05:36:57.937Z,47.26
2023-05-05T05:39:27.758Z,45.48
2023-05-05T05:42:05.607Z,44.03
2023-05-05T05:44:35.403Z,43.98
2023-05-05T05:47:06.697Z,43.85
2023-05-05T05:49:41.879Z,43.61
2023-05-05T05:52:15.142Z,43.79
2023-05-05T05:54:45.164Z,43.73
2023-05-05T05:57:17.117Z,43.75
2023-05-05T05:59:55.344Z,43.96
2023-05-05T06:02:25.821Z,44.01
2023-05-05T06:04:58.927Z,44.25
2023-05-05T06:07:29.143Z,44.42
2023-05-05T06:10:14.418Z,44.49
2023-05-05T06:12:54.219Z,44.55
2023-05-05T06:15:21.199Z,45.23
2023-05-05T06:17:52.622Z,47.00
2023-05-05T06:20:28.311Z,47.27
2023-05-05T06:22:58.379Z,47.15
2023-05-05T06:25:29.541Z,48.96
2023-05-05T06:27:59.338Z,49.74
2023-05-05T06:30:26.232Z,50.45
2023-05-05T06:32:56.059Z,50.85
2023-05-05T06:35:34.396Z,49.73
2023-05-05T06:38:04.514Z,49.35
2023-05-05T06:40:33.018Z,49.73
2023-05-05T06:42:59.725Z,50.31
2023-05-05T06:45:26.590Z,50.19
2023-05-05T06:47:57.406Z,50.74
2023-05-05T06:50:24.779Z,50.72
2023-05-05T06:52:56.539Z,50.80
2023-05-05T06:55:26.653Z,50.62
2023-05-05T06:57:58.551Z,50.62
2023-05-05T07:00:25.441Z,50.59
2023-05-05T07:02:52.262Z,50.80
2023-05-05T07:05:24.915Z,50.98
2023-05-05T07:08:05.595Z,50.98
2023-05-05T07:10:35.206Z,51.04
2023-05-05T07:13:05.213Z,51.38
2023-05-05T07:15:37.888Z,51.15
2023-05-05T07:18:04.888Z,51.11
2023-05-05T07:20:32.539Z,50.99
2023-05-05T07:23:04.885Z,51.08
2023-05-05T07:25:32.448Z,51.03
2023-05-05T07:28:08.195Z,51.44
2023-05-05T07:30:37.030Z,51.33
2023-05-05T07:33:09.623Z,51.30
2023-05-05T07:35:41.783Z,51.66
2023-05-05T07:38:11.684Z,51.79
2023-05-05T07:40:41.604Z,51.96
2023-05-05T07:43:11.720Z,51.72
2023-05-05T07:45:41.450Z,52.00
2023-05-05T07:48:11.854Z,52.14
2023-05-05T07:50:41.083Z,52.55
2023-05-05T07:53:14.743Z,52.42
2023-05-05T07:55:45.698Z,52.63
2023-05-05T07:58:12.596Z,52.87
2023-05-05T08:00:41.179Z,52.73
2023-05-05T08:03:11.663Z,52.73
2023-05-05T08:05:38.975Z,52.97
2023-05-05T08:08:06.153Z,53.58
2023-05-05T08:10:36.458Z,53.30
2023-05-05T08:13:06.356Z,52.62
2023-05-05T08:15:35.904Z,51.54
2023-05-05T08:18:03.653Z,51.39
2023-05-05T08:20:30.878Z,51.14
2023-05-05T08:23:00.710Z,51.20
2023-05-05T08:25:30.772Z,51.43
2023-05-05T08:28:06.917Z,51.37
2023-05-05T08:30:42.829Z,51.80
2023-05-05T08:33:09.651Z,51.93
2023-05-05T08:35:38.989Z,52.23
2023-05-05T08:38:09.359Z,52.27
2023-05-05T08:40:41.063Z,52.53
2023-05-05T08:43:08.105Z,52.62
2023-05-05T08:45:38.015Z,52.94
2023-05-05T08:48:08.057Z,52.76
2023-05-05T08:50:37.295Z,52.54
2023-05-05T08:53:12.041Z,52.79
2023-05-05T08:55:50.649Z,52.81
2023-05-05T08:58:30.670Z,52.89
2023-05-05T09:00:58.077Z,52.98
2023-05-05T09:03:27.859Z,52.86
2023-05-05T09:05:54.779Z,52.81
2023-05-05T09:08:22.388Z,52.82
2023-05-05T09:10:51.371Z,52.70
2023-05-05T09:13:24.764Z,52.71
2023-05-05T09:15:51.519Z,52.77
2023-05-05T09:18:24.452Z,52.88
2023-05-05T09:20:51.695Z,52.82
2023-05-05T09:23:20.284Z,52.70
2023-05-05T09:26:02.204Z,52.79
2023-05-05T09:28:30.698Z,52.80
2023-05-05T09:31:17.588Z,52.84
2023-05-05T09:33:44.470Z,52.65
2023-05-05T09:36:17.900Z,53.00
2023-05-05T09:39:05.513Z,52.96
2023-05-05T09:41:41.420Z,52.79
2023-05-05T09:44:09.068Z,52.83
2023-05-05T09:46:38.798Z,52.82
2023-05-05T09:49:19.771Z,52.97
2023-05-05T09:51:49.758Z,52.90
2023-05-05T09:54:42.683Z,52.90
2023-05-05T09:57:09.778Z,52.79
2023-05-05T09:59:42.552Z,53.15
2023-05-05T10:02:18.757Z,53.03
2023-05-05T10:04:45.811Z,52.96
2023-05-05T10:07:23.752Z,52.98
2023-05-05T10:09:55.180Z,53.05
2023-05-05T10:12:22.577Z,52.91
2023-05-05T10:14:50.754Z,52.96
2023-05-05T10:17:20.697Z,52.88
2023-05-05T10:19:52.525Z,52.75
2023-05-05T10:22:23.068Z,52.29
2023-05-05T10:24:55.971Z,52.70
2023-05-05T10:27:27.339Z,52.44
2023-05-05T10:29:56.724Z,52.52
2023-05-05T10:35:06.305Z,52.46
2023-05-05T10:37:37.044Z,52.53
2023-05-05T10:40:10.004Z,52.54
2023-05-05T10:42:39.047Z,52.56
2023-05-05T10:45:09.321Z,52.58
2023-05-05T10:47:41.885Z,52.66
2023-05-05T10:50:18.973Z,52.72
2023-05-05T10:52:47.339Z,52.65
2023-05-05T10:55:22.925Z,52.70
2023-05-05T10:57:53.187Z,52.70
2023-05-05T11:00:37.981Z,52.58
2023-05-05T11:03:17.223Z,52.64
2023-05-05T11:06:02.490Z,52.66
2023-05-05T11:08:30.408Z,52.75
2023-05-05T11:11:00.592Z,52.70
2023-05-05T11:13:30.488Z,52.67
2023-05-05T11:15:58.405Z,52.71
2023-05-05T11:18:30.115Z,52.75
2023-05-05T11:21:07.279Z,52.54
2023-05-05T11:23:33.962Z,52.82
2023-05-05T11:26:06.720Z,52.72
2023-05-05T11:28:33.596Z,52.79
2023-05-05T11:31:03.186Z,52.86
2023-05-05T11:33:39.036Z,52.82
2023-05-05T11:36:07.018Z,52.86
2023-05-05T11:38:46.051Z,52.89
2023-05-05T11:41:38.458Z,52.85
2023-05-05T11:44:11.148Z,52.89
2023-05-05T11:46:42.973Z,52.86
2023-05-05T11:49:10.869Z,52.95
2023-05-05T11:51:43.558Z,52.89
2023-05-05T11:54:14.489Z,52.89
2023-05-05T11:56:50.684Z,52.86
2023-05-05T11:59:20.974Z,52.83
2023-05-05T12:01:48.002Z,52.86
2023-05-05T12:04:19.044Z,52.80
2023-05-05T12:06:50.178Z,52.82
2023-05-05T12:09:20.966Z,52.83
2023-05-05T12:12:00.014Z,52.83
2023-05-05T12:14:32.973Z,52.86
2023-05-05T12:17:00.728Z,52.87
2023-05-05T12:19:30.553Z,52.88
2023-05-05T12:22:00.170Z,52.85
2023-05-05T12:24:33.528Z,52.85
2023-05-05T12:27:09.865Z,52.87
2023-05-05T12:29:39.708Z,52.90
2023-05-05T12:32:09.266Z,52.97
2023-05-05T12:34:36.034Z,52.87
2023-05-05T12:37:05.829Z,52.77
2023-05-05T12:39:38.892Z,52.82
2023-05-05T12:42:05.953Z,52.81
2023-05-05T12:44:36.728Z,52.81
2023-05-05T12:47:03.936Z,52.96
2023-05-05T12:49:51.695Z,53.00
2023-05-05T12:52:22.022Z,53.08
2023-05-05T12:54:59.153Z,53.16
2023-05-05T12:57:26.774Z,53.21
2023-05-05T12:59:53.806Z,53.28
2023-05-05T13:02:33.602Z,53.26
2023-05-05T13:05:03.272Z,53.22
2023-05-05T13:07:30.445Z,53.19
2023-05-05T13:10:07.327Z,53.21
2023-05-05T13:12:37.046Z,53.17
2023-05-05T13:15:10.313Z,53.18
2023-05-05T13:17:37.213Z,53.15
2023-05-05T13:20:07.223Z,53.09
2023-05-05T13:22:37.323Z,53.20
2023-05-05T13:25:04.510Z,53.20
2023-05-05T13:27:37.245Z,53.23
2023-05-05T13:30:09.115Z,53.18
2023-05-05T13:32:39.014Z,53.05
2023-05-05T13:35:06.094Z,53.11
2023-05-05T13:37:36.250Z,53.13
2023-05-05T13:40:07.519Z,53.19
2023-05-05T13:42:41.128Z,53.03
2023-05-05T13:45:08.517Z,53.12
2023-05-05T13:47:40.588Z,53.21
2023-05-05T13:50:11.970Z,53.27
2023-05-05T13:52:39.557Z,53.28
2023-05-05T13:55:10.509Z,53.29
2023-05-05T13:57:37.510Z,53.25
2023-05-05T14:00:10.445Z,53.29
2023-05-05T14:02:37.199Z,53.36
2023-05-05T14:05:04.091Z,53.34
2023-05-05T14:07:37.416Z,53.21
2023-05-05T14:10:10.668Z,53.32
2023-05-05T14:12:38.389Z,53.33
2023-05-05T14:15:05.694Z,53.71
2023-05-05T14:17:35.937Z,53.63
2023-05-05T14:20:08.412Z,53.67
2023-05-05T14:22:39.343Z,54.13
2023-05-05T14:25:06.432Z,54.38
2023-05-05T14:27:37.145Z,54.26
2023-05-05T14:30:04.155Z,54.05
2023-05-05T14:32:30.992Z,53.71
2023-05-05T14:35:03.881Z,53.05
2023-05-05T14:37:36.561Z,52.78
2023-05-05T14:40:09.259Z,52.74
2023-05-05T14:42:39.013Z,52.84
2023-05-05T14:45:08.878Z,52.92
2023-05-05T14:47:42.567Z,52.80
2023-05-05T14:50:12.294Z,52.57
2023-05-05T14:52:39.039Z,52.75
2023-05-05T14:55:09.189Z,52.51
2023-05-05T14:57:36.623Z,52.27
2023-05-05T15:00:07.081Z,52.26
2023-05-05T15:02:38.569Z,52.33
2023-05-05T15:05:08.223Z,52.45
2023-05-05T15:07:38.037Z,52.29
2023-05-05T15:10:10.822Z,52.29
2023-05-05T15:12:41.834Z,52.15
2023-05-05T15:15:18.412Z,52.29
2023-05-05T15:17:47.099Z,52.16
2023-05-05T15:20:17.266Z,51.84
2023-05-05T15:22:48.987Z,51.68
2023-05-05T15:25:22.085Z,51.82
2023-05-05T15:27:48.827Z,51.80
2023-05-05T15:30:15.606Z,51.81
2023-05-05T15:32:45.574Z,51.77
2023-05-05T15:35:13.675Z,51.76
2023-05-05T15:37:49.181Z,51.72
2023-05-05T15:40:16.786Z,51.91
2023-05-05T15:42:49.811Z,51.97
2023-05-05T15:45:18.057Z,51.91
2023-05-05T15:47:50.559Z,51.92
2023-05-05T15:50:17.274Z,51.93
2023-05-05T15:52:45.108Z,52.13
2023-05-05T15:55:18.420Z,52.23
2023-05-05T15:57:45.236Z,52.19
2023-05-05T16:00:14.887Z,52.10
2023-05-05T16:02:42.187Z,52.09
2023-05-05T16:05:12.271Z,51.97
2023-05-05T16:07:45.210Z,52.06
2023-05-05T16:10:21.515Z,51.93
2023-05-05T16:12:51.526Z,51.73
2023-05-05T16:15:21.444Z,51.69
2023-05-05T16:17:51.263Z,51.75
2023-05-05T16:20:20.888Z,51.70
2023-05-05T16:22:53.720Z,51.52
2023-05-05T16:25:22.342Z,51.46
2023-05-05T16:27:52.841Z,51.46
2023-05-05T16:30:23.124Z,51.43
2023-05-05T16:32:50.269Z,51.20
2023-05-05T16:35:21.084Z,51.03
2023-05-05T16:37:50.605Z,51.31
2023-05-05T16:40:20.240Z,51.50
2023-05-05T16:42:47.081Z,51.53
2023-05-05T16:45:17.346Z,51.59
2023-05-05T16:47:47.093Z,51.58
2023-05-05T16:50:14.684Z,51.63
2023-05-05T16:52:45.287Z,51.65
2023-05-05T16:55:18.572Z,51.22
2023-05-05T16:57:48.597Z,50.78
2023-05-05T17:00:19.636Z,50.81
2023-05-05T17:02:49.930Z,50.82
2023-05-05T17:05:16.855Z,50.65
2023-05-05T17:07:49.739Z,50.47
2023-05-05T17:10:22.893Z,50.35
2023-05-05T17:12:52.713Z,50.30
2023-05-05T17:15:21.761Z,50.36
2023-05-05T17:17:50.908Z,50.35
2023-05-05T17:20:18.179Z,50.07
2023-05-05T17:22:45.062Z,50.08
2023-05-05T17:25:14.856Z,50.08
2023-05-05T17:27:48.215Z,50.01
2023-05-05T17:30:15.023Z,50.05
2023-05-05T17:32:45.103Z,49.95
2023-05-05T17:35:16.323Z,50.07
2023-05-05T17:37:48.637Z,49.85
2023-05-05T17:40:18.815Z,49.60
2023-05-05T17:42:46.097Z,49.99
2023-05-05T17:45:16.462Z,49.94
2023-05-05T17:47:44.003Z,49.84
2023-05-05T17:50:16.387Z,50.06
2023-05-05T17:52:43.204Z,50.54
2023-05-05T17:55:14.962Z,50.83
2023-05-05T17:57:42.590Z,51.15
2023-05-05T18:00:12.913Z,51.18
2023-05-05T18:02:42.651Z,51.20
2023-05-05T18:05:12.364Z,51.19
2023-05-05T18:07:39.144Z,51.23
2023-05-05T18:10:11.592Z,51.47
2023-05-05T18:12:38.628Z,51.70
2023-05-05T18:15:06.243Z,51.91
2023-05-05T18:17:36.247Z,52.00
2023-05-05T18:20:07.041Z,51.92
2023-05-05T18:22:38.475Z,51.83
2023-05-05T18:25:09.487Z,51.78
2023-05-05T18:27:39.573Z,51.89
2023-05-05T18:30:11.033Z,51.86
2023-05-05T18:32:40.675Z,51.84
2023-05-05T18:35:15.564Z,51.79
2023-05-05T18:37:48.688Z,51.77
2023-05-05T18:40:18.751Z,51.66
2023-05-05T18:42:51.539Z,51.64
2023-05-05T18:45:24.993Z,51.65
2023-05-05T18:47:55.135Z,51.64
2023-05-05T18:50:25.316Z,51.65
2023-05-05T18:52:59.415Z,51.69
2023-05-05T18:55:29.348Z,51.70
2023-05-05T18:58:00.166Z,51.68
2023-05-05T19:00:30.021Z,51.75
2023-05-05T19:02:57.606Z,51.76
2023-05-05T19:05:27.543Z,52.24
2023-05-05T19:07:54.893Z,52.22
2023-05-05T19:10:25.172Z,52.16
2023-05-05T19:12:57.799Z,52.07
2023-05-05T19:15:26.571Z,52.00
2023-05-05T19:17:54.236Z,51.71
2023-05-05T19:20:21.619Z,51.31
2023-05-05T19:22:51.977Z,51.39
2023-05-05T19:25:25.349Z,51.44
2023-05-05T19:27:52.103Z,51.65
2023-05-05T19:30:19.030Z,51.79
2023-05-05T19:32:48.462Z,51.90
2023-05-05T19:35:18.621Z,52.09
2023-05-05T19:37:53.298Z,52.07
2023-05-05T19:40:23.026Z,52.12
2023-05-05T19:42:49.939Z,52.15
2023-05-05T19:45:19.495Z,52.14
2023-05-05T19:47:46.478Z,52.13
2023-05-05T19:50:16.938Z,52.20
2023-05-05T19:52:51.599Z,52.22
2023-05-05T19:55:21.775Z,52.19
2023-05-05T19:57:53.814Z,52.29
2023-05-05T20:00:23.547Z,52.25
2023-05-05T20:02:51.795Z,52.26
2023-05-05T20:05:24.133Z,52.30
2023-05-05T20:07:57.259Z,52.29
2023-05-05T20:10:24.035Z,52.28
2023-05-05T20:12:53.806Z,52.24
2023-05-05T20:15:25.365Z,52.26
2023-05-05T20:17:55.356Z,52.33
2023-05-05T20:20:22.720Z,52.31
2023-05-05T20:22:50.310Z,52.27
2023-05-05T20:25:22.690Z,52.27
2023-05-05T20:27:49.409Z,52.36
2023-05-05T20:30:16.702Z,52.26
2023-05-05T20:32:49.236Z,52.39
2023-05-05T20:35:16.572Z,52.39
2023-05-05T20:37:49.615Z,52.43
2023-05-05T20:40:20.797Z,52.47
2023-05-05T20:42:53.776Z,52.42
2023-05-05T20:45:24.342Z,52.38
2023-05-05T20:47:54.098Z,52.39
2023-05-05T20:50:24.125Z,52.39
2023-05-05T20:52:53.799Z,52.41
2023-05-05T20:55:22.025Z,52.44
2023-05-05T20:57:49.230Z,52.36
2023-05-05T21:00:16.125Z,52.38
2023-05-05T21:02:45.628Z,52.35
2023-05-05T21:05:12.643Z,52.40
2023-05-05T21:07:41.081Z,52.35
2023-05-05T21:10:08.296Z,52.38
2023-05-05T21:12:35.420Z,52.35
2023-05-05T21:15:05.184Z,52.37
2023-05-05T21:17:31.945Z,52.31
2023-05-05T21:19:59.918Z,52.36
2023-05-05T21:22:26.635Z,52.37
2023-05-05T21:24:54.104Z,52.35
2023-05-05T21:27:21.026Z,52.33
2023-05-05T21:29:52.572Z,52.32
2023-05-05T21:32:22.527Z,52.34
2023-05-05T21:34:51.088Z,52.35
2023-05-05T21:37:20.876Z,52.31
2023-05-05T21:39:50.826Z,52.23
2023-05-05T21:42:20.139Z,52.32
2023-05-05T21:44:51.806Z,52.27
2023-05-05T21:47:22.053Z,52.26
2023-05-05T21:49:51.700Z,52.30
2023-05-05T21:52:24.439Z,52.25
2023-05-05T21:54:56.878Z,52.32
2023-05-05T21:57:23.690Z,52.25
2023-05-05T21:59:53.645Z,52.26
2023-05-05T22:02:23.946Z,52.23
2023-05-05T22:04:54.575Z,52.25
2023-05-05T22:07:28.269Z,52.18
2023-05-05T22:09:55.025Z,52.24
2023-05-05T22:12:25.070Z,52.24
2023-05-05T22:14:54.754Z,52.23
2023-05-05T22:17:26.585Z,52.23
2023-05-05T22:19:57.008Z,52.25
2023-05-05T22:22:29.790Z,52.23
2023-05-05T22:24:56.969Z,52.25
2023-05-05T22:27:24.624Z,52.25
2023-05-05T22:29:51.482Z,52.21
2023-05-05T22:32:18.252Z,52.30
2023-05-05T22:34:51.133Z,52.27
2023-05-05T22:37:18.222Z,52.29
2023-05-05T22:39:47.508Z,52.24
2023-05-05T22:42:17.412Z,52.21
2023-05-05T22:44:44.615Z,52.20
2023-05-05T22:47:14.788Z,52.17
2023-05-05T22:49:41.778Z,52.24
2023-05-05T22:52:14.846Z,52.19
2023-05-05T22:54:45.089Z,52.13
2023-05-05T22:57:13.445Z,52.15
2023-05-05T22:59:43.976Z,52.18
2023-05-05T23:02:14.226Z,52.18
2023-05-05T23:04:47.561Z,52.11
2023-05-05T23:07:18.238Z,52.13
2023-05-05T23:09:45.013Z,52.22
2023-05-05T23:12:13.797Z,52.22
2023-05-05T23:14:41.508Z,52.15
2023-05-05T23:17:14.146Z,52.17
2023-05-05T23:19:40.835Z,52.18
2023-05-05T23:22:08.459Z,52.16
2023-05-05T23:24:35.252Z,52.14
2023-05-05T23:27:02.089Z,52.09
2023-05-05T23:29:33.769Z,52.41
2023-05-05T23:32:03.237Z,52.56
2023-05-05T23:34:33.052Z,52.66
2023-05-05T23:36:59.809Z,52.77
2023-05-05T23:39:29.722Z,52.78
2023-05-05T23:41:57.145Z,52.81
2023-05-05T23:44:26.064Z,52.81
2023-05-05T23:46:55.945Z,52.88
2023-05-05T23:49:25.720Z,52.81
2023-05-05T23:51:58.732Z,52.83
2023-05-05T23:54:32.099Z,52.90
2023-05-05T23:57:01.775Z,52.92
2023-05-05T23:59:34.999Z,52.99
